sensor_id;sensor_type;location;lat;lon;timestamp;P1;durP1;ratioP1;P2;durP2;ratioP2
27979;SDS011;15315;50.836;4.430;2023-06-22T00:09:10;11.20;;;4.60;;
27979;SDS011;15315;50.836;4.430;2023-06-22T00:19:10;5.80;;;3.78;;
27979;SDS011;15315;50.836;4.430;2023-06-22T00:29:11;7.55;;;4.15;;
27979;SDS011;15315;50.836;4.430;2023-06-22T00:39:12;6.55;;;3.67;;
27979;SDS011;15315;50.836;4.430;2023-06-22T00:49:13;7.78;;;4.15;;
27979;SDS011;15315;50.836;4.430;2023-06-22T00:59:14;6.10;;;4.45;;
27979;SDS011;15315;50.836;4.430;2023-06-22T01:09:22;5.68;;;4.35;;
27979;SDS011;15315;50.836;4.430;2023-06-22T01:19:41;8.57;;;4.30;;
27979;SDS011;15315;50.836;4.430;2023-06-22T01:29:47;8.73;;;5.65;;
27979;SDS011;15315;50.836;4.430;2023-06-22T01:39:51;9.00;;;5.20;;
27979;SDS011;15315;50.836;4.430;2023-06-22T01:49:53;7.57;;;5.60;;
27979;SDS011;15315;50.836;4.430;2023-06-22T02:00:03;8.85;;;5.72;;
27979;SDS011;15315;50.836;4.430;2023-06-22T02:10:08;8.07;;;5.90;;
27979;SDS011;15315;50.836;4.430;2023-06-22T02:20:13;16.05;;;6.38;;
27979;SDS011;15315;50.836;4.430;2023-06-22T02:30:14;11.50;;;6.03;;
27979;SDS011;15315;50.836;4.430;2023-06-22T02:40:15;8.57;;;5.85;;
27979;SDS011;15315;50.836;4.430;2023-06-22T02:50:16;8.13;;;5.72;;
27979;SDS011;15315;50.836;4.430;2023-06-22T03:00:16;9.32;;;5.93;;
27979;SDS011;15315;50.836;4.430;2023-06-22T03:10:17;9.60;;;6.63;;
27979;SDS011;15315;50.836;4.430;2023-06-22T03:20:17;12.70;;;6.95;;
27979;SDS011;15315;50.836;4.430;2023-06-22T03:30:19;10.88;;;7.18;;
27979;SDS011;15315;50.836;4.430;2023-06-22T03:40:19;9.13;;;6.78;;
27979;SDS011;15315;50.836;4.430;2023-06-22T03:50:20;12.73;;;7.95;;
27979;SDS011;15315;50.836;4.430;2023-06-22T04:00:20;10.23;;;7.00;;
27979;SDS011;15315;50.836;4.430;2023-06-22T04:10:20;12.63;;;7.00;;
27979;SDS011;15315;50.836;4.430;2023-06-22T04:20:21;10.65;;;6.55;;
27979;SDS011;15315;50.836;4.430;2023-06-22T04:30:22;12.68;;;8.05;;
27979;SDS011;15315;50.836;4.430;2023-06-22T04:40:22;10.57;;;6.72;;
27979;SDS011;15315;50.836;4.430;2023-06-22T04:50:23;11.48;;;7.30;;
27979;SDS011;15315;50.836;4.430;2023-06-22T05:00:24;13.25;;;8.05;;
27979;SDS011;15315;50.836;4.430;2023-06-22T05:10:24;14.05;;;9.23;;
27979;SDS011;15315;50.836;4.430;2023-06-22T05:20:24;15.60;;;8.68;;
27979;SDS011;15315;50.836;4.430;2023-06-22T05:30:25;20.10;;;12.25;;
27979;SDS011;15315;50.836;4.430;2023-06-22T05:40:26;27.25;;;15.57;;
27979;SDS011;15315;50.836;4.430;2023-06-22T05:50:27;27.95;;;18.73;;
27979;SDS011;15315;50.836;4.430;2023-06-22T06:00:27;28.77;;;16.13;;
27979;SDS011;15315;50.836;4.430;2023-06-22T06:10:28;27.80;;;16.03;;
27979;SDS011;15315;50.836;4.430;2023-06-22T06:20:29;26.42;;;15.55;;
27979;SDS011;15315;50.836;4.430;2023-06-22T06:30:30;25.38;;;16.52;;
27979;SDS011;15315;50.836;4.430;2023-06-22T06:40:30;23.52;;;15.80;;
27979;SDS011;15315;50.836;4.430;2023-06-22T06:50:31;27.08;;;17.13;;
27979;SDS011;15315;50.836;4.430;2023-06-22T07:00:31;24.10;;;16.20;;
27979;SDS011;15315;50.836;4.430;2023-06-22T07:10:32;25.67;;;16.70;;
27979;SDS011;15315;50.836;4.430;2023-06-22T07:20:32;27.50;;;17.80;;
27979;SDS011;15315;50.836;4.430;2023-06-22T07:30:33;23.98;;;15.88;;
27979;SDS011;15315;50.836;4.430;2023-06-22T07:40:34;24.08;;;17.30;;
27979;SDS011;15315;50.836;4.430;2023-06-22T07:50:35;25.38;;;16.30;;
27979;SDS011;15315;50.836;4.430;2023-06-22T08:00:35;23.17;;;16.05;;
27979;SDS011;15315;50.836;4.430;2023-06-22T08:10:36;27.90;;;15.60;;
27979;SDS011;15315;50.836;4.430;2023-06-22T08:20:36;22.98;;;15.82;;
27979;SDS011;15315;50.836;4.430;2023-06-22T08:30:36;22.38;;;16.08;;
27979;SDS011;15315;50.836;4.430;2023-06-22T08:40:37;24.40;;;15.75;;
27979;SDS011;15315;50.836;4.430;2023-06-22T08:50:37;27.58;;;15.07;;
27979;SDS011;15315;50.836;4.430;2023-06-22T09:00:40;25.63;;;13.82;;
27979;SDS011;15315;50.836;4.430;2023-06-22T09:10:40;19.02;;;12.95;;
27979;SDS011;15315;50.836;4.430;2023-06-22T09:20:41;19.90;;;13.48;;
27979;SDS011;15315;50.836;4.430;2023-06-22T09:30:42;20.40;;;13.48;;
27979;SDS011;15315;50.836;4.430;2023-06-22T09:40:44;25.55;;;16.25;;
27979;SDS011;15315;50.836;4.430;2023-06-22T09:50:45;270.00;;;25.95;;
27979;SDS011;15315;50.836;4.430;2023-06-22T10:00:45;70.95;;;36.92;;
27979;SDS011;15315;50.836;4.430;2023-06-22T10:10:46;77.40;;;39.10;;
27979;SDS011;15315;50.836;4.430;2023-06-22T10:20:50;80.38;;;40.03;;
27979;SDS011;15315;50.836;4.430;2023-06-22T10:30:51;51.67;;;34.45;;
27979;SDS011;15315;50.836;4.430;2023-06-22T10:40:51;53.10;;;35.35;;
27979;SDS011;15315;50.836;4.430;2023-06-22T10:50:52;58.35;;;36.95;;
27979;SDS011;15315;50.836;4.430;2023-06-22T11:00:53;58.45;;;34.72;;
27979;SDS011;15315;50.836;4.430;2023-06-22T11:10:54;66.78;;;42.42;;
27979;SDS011;15315;50.836;4.430;2023-06-22T11:20:54;71.80;;;44.58;;
27979;SDS011;15315;50.836;4.430;2023-06-22T11:30:54;66.82;;;42.42;;
27979;SDS011;15315;50.836;4.430;2023-06-22T11:40:55;58.53;;;38.10;;
27979;SDS011;15315;50.836;4.430;2023-06-22T11:50:56;53.65;;;39.42;;
27979;SDS011;15315;50.836;4.430;2023-06-22T12:00:57;65.97;;;42.42;;
27979;SDS011;15315;50.836;4.430;2023-06-22T12:10:57;55.83;;;38.28;;
27979;SDS011;15315;50.836;4.430;2023-06-22T12:20:57;60.63;;;37.40;;
27979;SDS011;15315;50.836;4.430;2023-06-22T12:30:58;60.90;;;41.85;;
27979;SDS011;15315;50.836;4.430;2023-06-22T12:40:58;69.85;;;45.65;;
27979;SDS011;15315;50.836;4.430;2023-06-22T12:50:59;96.57;;;52.67;;
27979;SDS011;15315;50.836;4.430;2023-06-22T13:00:59;93.57;;;56.92;;
27979;SDS011;15315;50.836;4.430;2023-06-22T13:11:00;111.97;;;64.05;;
27979;SDS011;15315;50.836;4.430;2023-06-22T13:21:04;174.38;;;64.95;;
27979;SDS011;15315;50.836;4.430;2023-06-22T13:31:04;144.57;;;66.25;;
27979;SDS011;15315;50.836;4.430;2023-06-22T13:41:05;118.60;;;64.07;;
27979;SDS011;15315;50.836;4.430;2023-06-22T13:51:06;138.63;;;68.33;;
27979;SDS011;15315;50.836;4.430;2023-06-22T14:01:06;129.50;;;70.72;;
27979;SDS011;15315;50.836;4.430;2023-06-22T14:11:07;149.07;;;75.80;;
27979;SDS011;15315;50.836;4.430;2023-06-22T14:21:07;167.13;;;82.78;;
27979;SDS011;15315;50.836;4.430;2023-06-22T14:31:08;140.05;;;78.85;;
27979;SDS011;15315;50.836;4.430;2023-06-22T14:41:08;153.32;;;81.47;;
27979;SDS011;15315;50.836;4.430;2023-06-22T14:51:09;226.18;;;96.97;;
27979;SDS011;15315;50.836;4.430;2023-06-22T15:01:10;178.40;;;88.68;;
27979;SDS011;15315;50.836;4.430;2023-06-22T15:11:11;184.23;;;93.65;;
27979;SDS011;15315;50.836;4.430;2023-06-22T15:21:12;189.20;;;96.22;;
27979;SDS011;15315;50.836;4.430;2023-06-22T15:31:12;197.13;;;102.10;;
27979;SDS011;15315;50.836;4.430;2023-06-22T15:41:13;184.55;;;99.93;;
27979;SDS011;15315;50.836;4.430;2023-06-22T15:51:13;191.60;;;95.22;;
27979;SDS011;15315;50.836;4.430;2023-06-22T16:01:14;199.90;;;104.78;;
27979;SDS011;15315;50.836;4.430;2023-06-22T16:11:14;183.77;;;100.40;;
27979;SDS011;15315;50.836;4.430;2023-06-22T16:21:14;175.43;;;94.57;;
27979;SDS011;15315;50.836;4.430;2023-06-22T16:31:15;209.10;;;108.07;;
27979;SDS011;15315;50.836;4.430;2023-06-22T16:41:16;203.27;;;110.70;;
27979;SDS011;15315;50.836;4.430;2023-06-22T16:51:17;228.88;;;115.22;;
27979;SDS011;15315;50.836;4.430;2023-06-22T17:01:18;203.90;;;100.22;;
27979;SDS011;15315;50.836;4.430;2023-06-22T17:11:18;159.80;;;87.22;;
27979;SDS011;15315;50.836;4.430;2023-06-22T17:21:23;147.55;;;80.82;;
27979;SDS011;15315;50.836;4.430;2023-06-22T17:31:23;123.63;;;71.97;;
27979;SDS011;15315;50.836;4.430;2023-06-22T17:41:31;130.90;;;70.65;;
27979;SDS011;15315;50.836;4.430;2023-06-22T17:51:32;101.10;;;61.45;;
27979;SDS011;15315;50.836;4.430;2023-06-22T18:01:34;91.65;;;59.95;;
27979;SDS011;15315;50.836;4.430;2023-06-22T18:21:49;86.75;;;56.33;;
27979;SDS011;15315;50.836;4.430;2023-06-22T18:31:49;85.00;;;54.03;;
27979;SDS011;15315;50.836;4.430;2023-06-22T18:41:53;79.63;;;53.58;;
27979;SDS011;15315;50.836;4.430;2023-06-22T19:02:10;63.92;;;47.65;;
27979;SDS011;15315;50.836;4.430;2023-06-22T19:12:21;62.75;;;45.60;;
27979;SDS011;15315;50.836;4.430;2023-06-22T19:22:23;57.47;;;39.38;;
27979;SDS011;15315;50.836;4.430;2023-06-22T19:32:44;49.17;;;33.97;;
27979;SDS011;15315;50.836;4.430;2023-06-22T19:42:46;56.80;;;41.85;;
27979;SDS011;15315;50.836;4.430;2023-06-22T19:52:46;84.57;;;57.78;;
27979;SDS011;15315;50.836;4.430;2023-06-22T20:02:49;133.15;;;83.93;;
27979;SDS011;15315;50.836;4.430;2023-06-22T20:12:52;154.73;;;92.28;;
27979;SDS011;15315;50.836;4.430;2023-06-22T20:22:56;167.43;;;97.68;;
27979;SDS011;15315;50.836;4.430;2023-06-22T20:42:58;170.90;;;98.28;;
27979;SDS011;15315;50.836;4.430;2023-06-22T20:53:00;157.55;;;94.28;;
27979;SDS011;15315;50.836;4.430;2023-06-22T21:03:01;175.43;;;100.28;;
27979;SDS011;15315;50.836;4.430;2023-06-22T21:13:08;144.00;;;84.05;;
27979;SDS011;15315;50.836;4.430;2023-06-22T21:23:09;139.18;;;79.50;;
27979;SDS011;15315;50.836;4.430;2023-06-22T21:33:09;126.28;;;71.38;;
27979;SDS011;15315;50.836;4.430;2023-06-22T21:43:10;118.75;;;68.93;;
27979;SDS011;15315;50.836;4.430;2023-06-22T21:53:12;113.80;;;67.57;;
27979;SDS011;15315;50.836;4.430;2023-06-22T22:03:12;104.10;;;60.88;;
27979;SDS011;15315;50.836;4.430;2023-06-22T22:13:13;110.70;;;62.23;;
27979;SDS011;15315;50.836;4.430;2023-06-22T22:23:13;106.68;;;57.05;;
27979;SDS011;15315;50.836;4.430;2023-06-22T22:33:14;108.85;;;61.28;;
27979;SDS011;15315;50.836;4.430;2023-06-22T22:43:14;100.43;;;60.00;;
27979;SDS011;15315;50.836;4.430;2023-06-22T22:53:14;98.65;;;53.50;;
27979;SDS011;15315;50.836;4.430;2023-06-22T23:03:17;90.45;;;55.17;;
27979;SDS011;15315;50.836;4.430;2023-06-22T23:13:17;96.88;;;53.70;;
27979;SDS011;15315;50.836;4.430;2023-06-22T23:23:18;85.90;;;50.78;;
27979;SDS011;15315;50.836;4.430;2023-06-22T23:33:18;88.22;;;51.70;;
27979;SDS011;15315;50.836;4.430;2023-06-22T23:43:19;86.15;;;47.72;;
27979;SDS011;15315;50.836;4.430;2023-06-22T23:53:19;79.63;;;44.38;;
